Jaborandi, Brazil
Current Conditions -  °F | °C
As of 7:00 PM on Monday 20 Oct 2014 (Local Time) from SBRP Reporting Station
Clear Clear  
Wind Chill: 79°   Ceiling: Unl
Heat Index: 80°   Visibility: 6mi
Dew Point: 63°   Wind: 17mph
Humidity: 57%   Direction: 160°SSE
Pressure: 29.94"   Gusts: NA
Location:  20.69°S, 48.41°W
Report Text: SBRP 202200Z 16015KT CAVOK 26/17 Q1014
Loading
Personal Weather Stations






























Interactive Weather Map
Tropical Storm Tracking
New forecast layout! Learn more

10-Day Weather Forecast

Advertisements
Track Severe Weather on mobile